Hub


Voltar

 INFORMAÇÕES METEOROLÓGICAS

METAR FOR PAVD


ADDS - METARS form results

(0836 UTC 25 March 2019)
Data provider http://aviationweather.gov/metar/data/
 
METAR text: PAVD 250819Z AUTO 09005KT 10SM -RA BKN005 BKN023 OVC031 02/01 A3035 RMK AO2 P0000 FZRANO
Conditions at: PAVD (VALDEZ , AK, US) observed 0819 UTC 25 March 2019
Temperature: 2.0°C (36°F)
Dewpoint: 1.0°C (34°F) [RH = 93%]
Pressure (altimeter): 30.35 inches Hg (1027.9 mb)
Winds: from the E (90 degrees) at 6 MPH (5 knots; 2.6 m/s)
Visibility: 10 or more miles (16+ km)
Ceiling: 500 feet AGL
Clouds: broken clouds at 500 feet AGL
broken clouds at 2300 feet AGL
overcast cloud deck at 3100 feet AGL
Weather: -RA  (light rain)

METAR text: PAVD 250756Z AUTO 00000KT 8SM -RA BKN007 OVC010 02/02 A3035 RMK AO2 RAB00E19B56UPB19E56 SLP302 P0000 T00170017 400440011 FZRANO
Conditions at: PAVD (VALDEZ , AK, US) observed 0756 UTC 25 March 2019
Temperature: 1.7°C (35°F)
Dewpoint: 1.7°C (35°F) [RH = 100%]
Pressure (altimeter): 30.35 inches Hg (1027.9 mb)
[Sea-level pressure: 1030.2 mb]
Winds: calm
Visibility: 8 miles (13 km)
Ceiling: 700 feet AGL
Clouds: broken clouds at 700 feet AGL
overcast cloud deck at 1000 feet AGL
Weather: -RA  (light rain)

Forecast for: PAVD (VALDEZ , AK, US)
Text: PAVD 250530Z 2506/2606 00000KT P6SM -RA BKN015 OVC045
Forecast period: 0600 to 2200 UTC 25 March 2019
Forecast type: FROM: standard forecast or significant change
Winds: calm
Visibility: 6 or more miles 10+ km)
Ceiling: 1500 feet AGL
Clouds: broken clouds at 1500 feet AGL
overcast cloud deck at 4500 feet AGL
Weather: -RA  (light rain)
Text: FM252200 VRB03KT P6SM SCT018 BKN050 AMD LTD TO CLD VIS AND WIND
Forecast period: 2200 UTC 25 March 2019 to 0600 UTC 26 March 2019
Forecast type: FROM: standard forecast or significant change
Winds: variable direction winds at 3 MPH (3 knots; 1.5 m/s)
Visibility: 6 or more miles 10+ km)
Ceiling: 5000 feet AGL
Clouds: scattered clouds at 1800 feet AGL
broken clouds at 5000 feet AGL
Weather: no significant weather forecast for this period


 MAPA DO AEROPORTO


 INFORMAÇÕES DA PISTA

Pista 06 Tamanho da pista 6508 ft Largura da pista 150 ft
Elevação da pista 39 ft Ranhura da pista 0 ft Proa da pista 81
Pista 24 Tamanho da pista 6508 ft Largura da pista 150 ft
Elevação da pista 118 ft Ranhura da pista 0 ft Proa da pista 261

 FREQUÊNCIAS DO AEROPORTO

Tipo AWOS Nome AWOS 3 Frequência 118.8 MHZ
Tipo CNTR Nome ANCHORAGE Frequência 119.3 MHZ
Tipo CTAF Nome CTAF Frequência 122.9 MHZ
Tipo FSS Nome JUNEAU RDO Frequência 122.2 MHZ

 AUXÍLIOS DE NAVEGAÇÃO PRÓXIMOS AO AEROPORTO

Tipo NDB Nome Mineral Creek Frequência 524 KHZ